Flight Track Log - Related Links

Times and Time Zones

All times are in EDT time to prevent confusion due to time zone crossing. See the EWG3089 flight status page for this flight to view local times or setup timezone preferences in your user account.

Time Position Orientation Groundspeed Altitude Reporting Facility
EDT Latitude Longitude Course Direction KTS MPH feet Rate Location/Type
Sun 03:40:00 AM 48.2824 16.1250 300° West  Level Estimated
Sun 03:41:00 AM 48.3395 15.9761 300° West  Level Estimated
Sun 03:42:00 AM 48.3963 15.8269 300° West  Level Estimated
Sun 03:43:00 AM 48.4529 15.6774 300° West  Level Estimated
Sun 03:44:00 AM 48.5093 15.5275 300° West  Level Estimated
Sun 03:45:00 AM 48.5655 15.3772 300° West  Level Estimated
Sun 03:46:00 AM 48.6216 15.2267 299° West  Level Estimated
Sun 03:47:00 AM 48.6774 15.0758 299° West  Level Estimated
Sun 03:48:00 AM 48.7330 14.9246 299° West  Level Estimated
Sun 03:49:00 AM 48.7885 14.7730 299° West  Level Estimated
Sun 03:50:00 AM 48.8437 14.6211 299° West  Level Estimated
Sun 03:51:00 AM 48.8988 14.4689 299° West  Level Estimated
Sun 03:52:00 AM 48.9536 14.3163 299° West  Level Estimated
Sun 03:53:00 AM 49.0082 14.1634 299° West  Level Estimated
Sun 03:54:00 AM 49.0627 14.0102 299° West  Level Estimated
Sun 03:55:00 AM 49.1169 13.8566 298° West  Level Estimated
Sun 03:56:00 AM 49.1709 13.7027 298° West  Level Estimated
Sun 03:57:00 AM 49.2248 13.5484 298° West  Level Estimated
Sun 03:58:00 AM 49.2784 13.3939 298° West  Level Estimated
Sun 03:59:00 AM 49.3318 13.2389 298° West  Level Estimated
Sun 04:00:00 AM 49.3850 13.0837 298° West  Level Estimated
Sun 04:01:00 AM 49.4380 12.9281 298° West  Level Estimated
Sun 04:02:00 AM 49.4908 12.7722 298° West  Level Estimated
Sun 04:03:00 AM 49.5434 12.6159 297° West  Level Estimated
Sun 04:04:00 AM 49.5957 12.4593 297° West  Level Estimated
Sun 04:05:00 AM 49.6479 12.3024 297° West  Level Estimated
Sun 04:06:00 AM 49.6998 12.1451 297° West  Level Estimated
Sun 04:07:00 AM 49.7516 11.9875 297° West  Level Estimated
Sun 04:08:00 AM 49.8031 11.8296 297° West  Level Estimated
Sun 04:09:00 AM 49.8544 11.6713 297° West  Level Estimated
Sun 04:10:00 AM 49.9055 11.5127 297° West  Level Estimated
Sun 04:11:00 AM 49.9563 11.3538 296° West  Level Estimated
Sun 04:12:00 AM 50.0070 11.1945 296° West  Level Estimated
Sun 04:13:00 AM 50.0574 11.0349 296° West  Level Estimated
Sun 04:14:00 AM 50.1076 10.8749 296° West  Level Estimated
Sun 04:15:00 AM 50.1576 10.7146 296° West  Level Estimated
Sun 04:16:00 AM 50.2074 10.5540 296° West  Level Estimated
Sun 04:17:00 AM 50.2569 10.3930 296° West  Level Estimated
Sun 04:18:00 AM 50.3063 10.2317 296° West  Level Estimated
Sun 04:19:00 AM 50.3554 10.0701 296° West  Level Estimated
Sun 04:20:00 AM 50.4043 9.9081 295° West  Level Estimated
Sun 04:21:00 AM 50.4529 9.7459 295° West  Level Estimated
Sun 04:22:00 AM 50.5013 9.5832 295° West  Level Estimated
Sun 04:23:00 AM 50.5495 9.4203 295° West  Level Estimated
Sun 04:24:00 AM 50.5975 9.2570 295° West  Level Estimated
Sun 04:25:00 AM 50.6452 9.0934 295° West  Level Estimated
Sun 04:26:00 AM 50.6927 8.9294 295° West  Level Estimated
Sun 04:27:00 AM 50.7400 8.7651 295° West  Level Estimated
Sun 04:28:00 AM 50.7871 8.6005 294° West  Level Estimated
Sun 04:29:00 AM 50.8339 8.4355 294° West  Level Estimated
Sun 04:30:00 AM 50.8805 8.2703 294° West  Level Estimated
Sun 04:31:00 AM 50.9268 8.1046 294° West  Level Estimated
Sun 04:32:00 AM 50.9730 7.9387 294° West  Level Estimated
Sun 04:33:00 AM 51.0188 7.7724 294° West  Level Estimated
Sun 04:34:00 AM 51.0645 7.6058 294° West  Level Estimated
Sun 04:35:00 AM 51.1099 7.4389 293° West  Level Estimated
Sun 04:36:00 AM 51.1551 7.2717 293° West  Level Estimated
Sun 04:37:00 AM 51.2000 7.1041 293° West  Level Estimated
Sun 04:38:00 AM 51.2447 6.9362 293° West  Level Estimated
Sun 04:39:00 AM 51.2892 6.7679 293° West  Level Estimated
Sun 04:40:00 AM 51.2895 6.7668 293° West  Level Estimated
Sun 04:41:00 AM 51.2895 6.7668 46° Northeast  Level Estimated
Sun 04:42:00 AM 51.2895 6.7668 314° West  Level Estimated
Sun 04:43:00 AM 51.2895 6.7668 46° Northeast  Level Estimated
Sun 04:44:00 AM 51.2895 6.7668 314° West  Level Estimated
Sun 04:45:00 AM 51.2895 6.7668 46° Northeast  Level Estimated
Sun 04:46:00 AM 51.2895 6.7668 314° West  Level Estimated
Sun 04:47:00 AM 51.2895 6.7668 46° Northeast  Level Estimated
Sun 04:48:00 AM 51.2895 6.7668 314° West  Level Estimated
Sun 04:49:00 AM 51.2895 6.7668 46° Northeast  Level Estimated
Sun 04:50:00 AM 51.2895 6.7668 314° West  Level Estimated
Sun 04:51:00 AM 51.2895 6.7668 46° Northeast  Level Estimated
Sun 04:52:00 AM 51.2895 6.7668 314° West  Level Estimated
Sun 04:53:00 AM 51.2895 6.7668 46° Northeast  Level Estimated
Sun 04:54:00 AM 51.2895 6.7668 314° West  Level Estimated

Login

Don't have an account? Register now (free) for customized features, flight alerts, and more!